sensor_id;sensor_type;location;lat;lon;timestamp;P1;durP1;ratioP1;P2;durP2;ratioP2
42598;SDS011;28225;42.714;23.860;2022-11-20T00:00:36;12.88;;;7.25;;
42598;SDS011;28225;42.714;23.860;2022-11-20T00:03:05;9.82;;;5.20;;
42598;SDS011;28225;42.714;23.860;2022-11-20T00:05:33;8.82;;;4.80;;
42598;SDS011;28225;42.714;23.860;2022-11-20T00:07:58;8.07;;;4.90;;
42598;SDS011;28225;42.714;23.860;2022-11-20T00:10:24;6.07;;;4.80;;
42598;SDS011;28225;42.714;23.860;2022-11-20T00:12:49;17.42;;;6.15;;
42598;SDS011;28225;42.714;23.860;2022-11-20T00:15:17;15.25;;;5.90;;
42598;SDS011;28225;42.714;23.860;2022-11-20T00:17:43;8.20;;;5.53;;
42598;SDS011;28225;42.714;23.860;2022-11-20T00:20:08;7.15;;;4.82;;
42598;SDS011;28225;42.714;23.860;2022-11-20T00:22:34;10.65;;;4.85;;
42598;SDS011;28225;42.714;23.860;2022-11-20T00:25:00;10.38;;;4.82;;
42598;SDS011;28225;42.714;23.860;2022-11-20T00:27:28;10.35;;;4.63;;
42598;SDS011;28225;42.714;23.860;2022-11-20T00:29:54;7.85;;;4.75;;
42598;SDS011;28225;42.714;23.860;2022-11-20T00:32:19;8.35;;;4.47;;
42598;SDS011;28225;42.714;23.860;2022-11-20T00:34:45;7.55;;;4.75;;
42598;SDS011;28225;42.714;23.860;2022-11-20T00:37:10;8.50;;;6.07;;
42598;SDS011;28225;42.714;23.860;2022-11-20T00:39:39;7.75;;;5.20;;
42598;SDS011;28225;42.714;23.860;2022-11-20T00:42:04;13.73;;;5.07;;
42598;SDS011;28225;42.714;23.860;2022-11-20T00:44:30;7.95;;;5.05;;
42598;SDS011;28225;42.714;23.860;2022-11-20T00:47:04;7.05;;;4.63;;
42598;SDS011;28225;42.714;23.860;2022-11-20T00:49:30;10.00;;;5.03;;
42598;SDS011;28225;42.714;23.860;2022-11-20T00:51:58;6.47;;;4.07;;
42598;SDS011;28225;42.714;23.860;2022-11-20T00:54:23;5.63;;;4.53;;
42598;SDS011;28225;42.714;23.860;2022-11-20T00:56:49;5.22;;;4.40;;
42598;SDS011;28225;42.714;23.860;2022-11-20T00:59:14;8.48;;;4.32;;
42598;SDS011;28225;42.714;23.860;2022-11-20T01:01:40;8.98;;;5.68;;
42598;SDS011;28225;42.714;23.860;2022-11-20T01:04:05;9.65;;;4.75;;
42598;SDS011;28225;42.714;23.860;2022-11-20T01:06:32;9.68;;;4.68;;
42598;SDS011;28225;42.714;23.860;2022-11-20T01:09:00;7.88;;;4.88;;
42598;SDS011;28225;42.714;23.860;2022-11-20T01:11:28;7.78;;;5.53;;
42598;SDS011;28225;42.714;23.860;2022-11-20T01:13:55;9.10;;;5.03;;
42598;SDS011;28225;42.714;23.860;2022-11-20T01:16:28;10.85;;;6.65;;
42598;SDS011;28225;42.714;23.860;2022-11-20T01:18:56;11.55;;;6.35;;
42598;SDS011;28225;42.714;23.860;2022-11-20T01:21:23;11.30;;;7.55;;
42598;SDS011;28225;42.714;23.860;2022-11-20T01:23:53;11.85;;;7.88;;
42598;SDS011;28225;42.714;23.860;2022-11-20T01:26:23;12.98;;;7.60;;
42598;SDS011;28225;42.714;23.860;2022-11-20T01:28:50;12.60;;;7.10;;
42598;SDS011;28225;42.714;23.860;2022-11-20T01:31:17;10.07;;;4.60;;
42598;SDS011;28225;42.714;23.860;2022-11-20T01:33:51;6.90;;;3.88;;
42598;SDS011;28225;42.714;23.860;2022-11-20T01:36:22;19.55;;;13.48;;
42598;SDS011;28225;42.714;23.860;2022-11-20T01:38:51;10.32;;;7.32;;
42598;SDS011;28225;42.714;23.860;2022-11-20T01:41:20;45.25;;;18.15;;
42598;SDS011;28225;42.714;23.860;2022-11-20T01:44:05;27.13;;;15.80;;
42598;SDS011;28225;42.714;23.860;2022-11-20T01:46:35;22.42;;;12.85;;
42598;SDS011;28225;42.714;23.860;2022-11-20T01:49:08;15.80;;;10.55;;
42598;SDS011;28225;42.714;23.860;2022-11-20T01:51:42;11.85;;;5.97;;
42598;SDS011;28225;42.714;23.860;2022-11-20T01:54:14;11.15;;;5.10;;
42598;SDS011;28225;42.714;23.860;2022-11-20T01:56:54;7.53;;;4.00;;
42598;SDS011;28225;42.714;23.860;2022-11-20T01:59:21;7.23;;;4.57;;
42598;SDS011;28225;42.714;23.860;2022-11-20T02:01:48;9.10;;;4.47;;
42598;SDS011;28225;42.714;23.860;2022-11-20T02:04:13;4.53;;;3.45;;
42598;SDS011;28225;42.714;23.860;2022-11-20T02:06:51;7.25;;;3.92;;
42598;SDS011;28225;42.714;23.860;2022-11-20T02:09:26;8.02;;;4.32;;
42598;SDS011;28225;42.714;23.860;2022-11-20T02:11:52;10.80;;;3.92;;
42598;SDS011;28225;42.714;23.860;2022-11-20T02:14:18;10.93;;;6.45;;
42598;SDS011;28225;42.714;23.860;2022-11-20T02:16:45;8.90;;;5.88;;
42598;SDS011;28225;42.714;23.860;2022-11-20T02:19:17;15.10;;;6.80;;
42598;SDS011;28225;42.714;23.860;2022-11-20T02:22:00;8.23;;;4.63;;
42598;SDS011;28225;42.714;23.860;2022-11-20T02:24:35;7.45;;;4.07;;
42598;SDS011;28225;42.714;23.860;2022-11-20T02:27:07;10.85;;;5.38;;
42598;SDS011;28225;42.714;23.860;2022-11-20T02:34:54;8.07;;;5.18;;
42598;SDS011;28225;42.714;23.860;2022-11-20T02:37:20;7.53;;;4.97;;
42598;SDS011;28225;42.714;23.860;2022-11-20T02:39:47;6.07;;;4.43;;
42598;SDS011;28225;42.714;23.860;2022-11-20T02:42:14;5.53;;;3.50;;
42598;SDS011;28225;42.714;23.860;2022-11-20T02:44:39;7.75;;;4.25;;
42598;SDS011;28225;42.714;23.860;2022-11-20T02:47:05;8.30;;;4.32;;
42598;SDS011;28225;42.714;23.860;2022-11-20T02:49:30;5.75;;;3.53;;
42598;SDS011;28225;42.714;23.860;2022-11-20T02:51:56;5.65;;;3.45;;
42598;SDS011;28225;42.714;23.860;2022-11-20T02:54:22;6.70;;;3.95;;
42598;SDS011;28225;42.714;23.860;2022-11-20T02:56:48;5.53;;;3.80;;
42598;SDS011;28225;42.714;23.860;2022-11-20T02:59:13;8.48;;;4.28;;
42598;SDS011;28225;42.714;23.860;2022-11-20T03:01:38;8.98;;;4.10;;
42598;SDS011;28225;42.714;23.860;2022-11-20T03:04:07;5.22;;;3.47;;
42598;SDS011;28225;42.714;23.860;2022-11-20T03:06:32;5.63;;;3.13;;
42598;SDS011;28225;42.714;23.860;2022-11-20T03:08:58;8.48;;;4.03;;
42598;SDS011;28225;42.714;23.860;2022-11-20T03:11:23;5.60;;;3.35;;
42598;SDS011;28225;42.714;23.860;2022-11-20T03:13:49;7.63;;;3.15;;
42598;SDS011;28225;42.714;23.860;2022-11-20T03:16:16;4.95;;;3.05;;
42598;SDS011;28225;42.714;23.860;2022-11-20T03:18:43;10.27;;;4.20;;
42598;SDS011;28225;42.714;23.860;2022-11-20T03:21:09;6.68;;;4.15;;
42598;SDS011;28225;42.714;23.860;2022-11-20T03:23:36;7.90;;;3.22;;
42598;SDS011;28225;42.714;23.860;2022-11-20T03:28:33;4.82;;;3.13;;
42598;SDS011;28225;42.714;23.860;2022-11-20T03:30:58;4.07;;;2.95;;
42598;SDS011;28225;42.714;23.860;2022-11-20T03:33:30;3.63;;;2.85;;
42598;SDS011;28225;42.714;23.860;2022-11-20T03:36:00;4.60;;;2.97;;
42598;SDS011;28225;42.714;23.860;2022-11-20T03:38:28;15.23;;;3.45;;
42598;SDS011;28225;42.714;23.860;2022-11-20T03:40:58;5.00;;;3.45;;
42598;SDS011;28225;42.714;23.860;2022-11-20T03:43:25;4.57;;;2.60;;
42598;SDS011;28225;42.714;23.860;2022-11-20T03:45:50;7.07;;;2.97;;
42598;SDS011;28225;42.714;23.860;2022-11-20T03:48:16;3.53;;;2.70;;
42598;SDS011;28225;42.714;23.860;2022-11-20T03:50:41;8.43;;;3.15;;
42598;SDS011;28225;42.714;23.860;2022-11-20T03:53:06;4.50;;;2.65;;
42598;SDS011;28225;42.714;23.860;2022-11-20T03:55:35;5.05;;;2.85;;
42598;SDS011;28225;42.714;23.860;2022-11-20T03:58:01;4.22;;;3.42;;
42598;SDS011;28225;42.714;23.860;2022-11-20T04:00:26;6.28;;;3.47;;
42598;SDS011;28225;42.714;23.860;2022-11-20T04:02:52;4.28;;;2.95;;
42598;SDS011;28225;42.714;23.860;2022-11-20T04:05:17;6.78;;;3.33;;
42598;SDS011;28225;42.714;23.860;2022-11-20T04:07:42;7.70;;;2.90;;
42598;SDS011;28225;42.714;23.860;2022-11-20T04:10:08;5.28;;;2.63;;
42598;SDS011;28225;42.714;23.860;2022-11-20T04:12:33;5.93;;;2.38;;
42598;SDS011;28225;42.714;23.860;2022-11-20T04:14:59;7.68;;;3.28;;
42598;SDS011;28225;42.714;23.860;2022-11-20T04:17:24;4.30;;;2.53;;
42598;SDS011;28225;42.714;23.860;2022-11-20T04:19:50;3.85;;;2.55;;
42598;SDS011;28225;42.714;23.860;2022-11-20T04:22:15;9.15;;;4.00;;
42598;SDS011;28225;42.714;23.860;2022-11-20T04:24:41;12.32;;;4.43;;
42598;SDS011;28225;42.714;23.860;2022-11-20T04:27:06;10.48;;;4.82;;
42598;SDS011;28225;42.714;23.860;2022-11-20T04:29:31;6.60;;;4.07;;
42598;SDS011;28225;42.714;23.860;2022-11-20T04:31:57;13.20;;;5.47;;
42598;SDS011;28225;42.714;23.860;2022-11-20T04:34:22;9.45;;;4.70;;
42598;SDS011;28225;42.714;23.860;2022-11-20T04:36:48;8.07;;;3.65;;
42598;SDS011;28225;42.714;23.860;2022-11-20T04:39:14;7.05;;;3.85;;
42598;SDS011;28225;42.714;23.860;2022-11-20T04:41:40;5.18;;;3.05;;
42598;SDS011;28225;42.714;23.860;2022-11-20T04:44:08;7.30;;;4.35;;
42598;SDS011;28225;42.714;23.860;2022-11-20T04:46:35;7.70;;;2.80;;
42598;SDS011;28225;42.714;23.860;2022-11-20T04:49:02;3.20;;;2.30;;
42598;SDS011;28225;42.714;23.860;2022-11-20T04:51:28;5.07;;;2.28;;
42598;SDS011;28225;42.714;23.860;2022-11-20T04:53:54;4.75;;;2.45;;
42598;SDS011;28225;42.714;23.860;2022-11-20T04:56:20;26.95;;;15.23;;
42598;SDS011;28225;42.714;23.860;2022-11-20T04:58:45;6.20;;;4.55;;
42598;SDS011;28225;42.714;23.860;2022-11-20T05:01:12;6.93;;;4.05;;
42598;SDS011;28225;42.714;23.860;2022-11-20T05:03:39;4.88;;;2.95;;
42598;SDS011;28225;42.714;23.860;2022-11-20T05:06:05;2.70;;;2.20;;
42598;SDS011;28225;42.714;23.860;2022-11-20T05:08:38;7.95;;;2.78;;
42598;SDS011;28225;42.714;23.860;2022-11-20T05:11:04;11.40;;;7.72;;
42598;SDS011;28225;42.714;23.860;2022-11-20T05:13:40;11.93;;;6.63;;
42598;SDS011;28225;42.714;23.860;2022-11-20T05:16:06;9.32;;;7.22;;
42598;SDS011;28225;42.714;23.860;2022-11-20T05:18:36;47.33;;;25.73;;
42598;SDS011;28225;42.714;23.860;2022-11-20T05:21:05;14.07;;;8.50;;
42598;SDS011;28225;42.714;23.860;2022-11-20T05:23:31;13.93;;;6.25;;
42598;SDS011;28225;42.714;23.860;2022-11-20T05:25:59;8.23;;;4.28;;
42598;SDS011;28225;42.714;23.860;2022-11-20T05:28:26;6.32;;;4.60;;
42598;SDS011;28225;42.714;23.860;2022-11-20T05:30:52;11.32;;;5.53;;
42598;SDS011;28225;42.714;23.860;2022-11-20T05:33:20;7.60;;;4.87;;
42598;SDS011;28225;42.714;23.860;2022-11-20T05:35:46;10.15;;;6.35;;
42598;SDS011;28225;42.714;23.860;2022-11-20T05:38:13;7.60;;;5.53;;
42598;SDS011;28225;42.714;23.860;2022-11-20T05:40:38;17.60;;;11.30;;
42598;SDS011;28225;42.714;23.860;2022-11-20T05:43:03;21.42;;;10.30;;
42598;SDS011;28225;42.714;23.860;2022-11-20T05:45:29;12.57;;;6.82;;
42598;SDS011;28225;42.714;23.860;2022-11-20T05:47:57;8.43;;;5.40;;
42598;SDS011;28225;42.714;23.860;2022-11-20T05:50:24;12.57;;;6.93;;
42598;SDS011;28225;42.714;23.860;2022-11-20T05:52:50;10.27;;;4.00;;
42598;SDS011;28225;42.714;23.860;2022-11-20T05:55:15;7.63;;;3.40;;
42598;SDS011;28225;42.714;23.860;2022-11-20T05:57:41;7.15;;;2.13;;
42598;SDS011;28225;42.714;23.860;2022-11-20T06:00:06;2.35;;;1.60;;
42598;SDS011;28225;42.714;23.860;2022-11-20T06:02:34;5.05;;;1.50;;
42598;SDS011;28225;42.714;23.860;2022-11-20T06:05:00;4.17;;;1.27;;
42598;SDS011;28225;42.714;23.860;2022-11-20T06:07:26;2.60;;;1.00;;
42598;SDS011;28225;42.714;23.860;2022-11-20T06:09:52;1.80;;;1.50;;
42598;SDS011;28225;42.714;23.860;2022-11-20T07:11:35;20.90;;;10.65;;
42598;SDS011;28225;42.714;23.860;2022-11-20T07:14:01;16.13;;;8.60;;
42598;SDS011;28225;42.714;23.860;2022-11-20T07:16:26;14.27;;;9.10;;
42598;SDS011;28225;42.714;23.860;2022-11-20T07:18:52;10.82;;;5.43;;
42598;SDS011;28225;42.714;23.860;2022-11-20T07:21:18;11.45;;;5.88;;
42598;SDS011;28225;42.714;23.860;2022-11-20T07:23:43;7.25;;;4.78;;
42598;SDS011;28225;42.714;23.860;2022-11-20T07:26:10;6.18;;;4.50;;
42598;SDS011;28225;42.714;23.860;2022-11-20T07:28:35;8.75;;;5.32;;
42598;SDS011;28225;42.714;23.860;2022-11-20T07:31:01;8.35;;;4.70;;
42598;SDS011;28225;42.714;23.860;2022-11-20T07:33:27;13.95;;;7.53;;
42598;SDS011;28225;42.714;23.860;2022-11-20T07:35:53;10.63;;;6.45;;
42598;SDS011;28225;42.714;23.860;2022-11-20T07:38:18;10.32;;;7.15;;
42598;SDS011;28225;42.714;23.860;2022-11-20T07:40:44;4.85;;;3.72;;
42598;SDS011;28225;42.714;23.860;2022-11-20T07:43:10;5.32;;;2.72;;
42598;SDS011;28225;42.714;23.860;2022-11-20T07:45:35;5.80;;;2.50;;
42598;SDS011;28225;42.714;23.860;2022-11-20T07:48:00;5.57;;;2.00;;
42598;SDS011;28225;42.714;23.860;2022-11-20T07:50:26;5.28;;;3.90;;
42598;SDS011;28225;42.714;23.860;2022-11-20T07:52:51;8.65;;;4.32;;
42598;SDS011;28225;42.714;23.860;2022-11-20T07:55:17;10.05;;;6.50;;
42598;SDS011;28225;42.714;23.860;2022-11-20T07:57:43;32.58;;;16.33;;
42598;SDS011;28225;42.714;23.860;2022-11-20T08:00:09;57.20;;;26.33;;
42598;SDS011;28225;42.714;23.860;2022-11-20T08:02:39;90.78;;;59.65;;
42598;SDS011;28225;42.714;23.860;2022-11-20T08:05:08;19.50;;;11.98;;
42598;SDS011;28225;42.714;23.860;2022-11-20T08:07:37;8.07;;;5.07;;
42598;SDS011;28225;42.714;23.860;2022-11-20T08:10:09;12.80;;;10.40;;
42598;SDS011;28225;42.714;23.860;2022-11-20T08:12:36;25.45;;;17.40;;
42598;SDS011;28225;42.714;23.860;2022-11-20T08:15:20;27.52;;;15.20;;
42598;SDS011;28225;42.714;23.860;2022-11-20T08:17:46;25.27;;;18.73;;
42598;SDS011;28225;42.714;23.860;2022-11-20T08:20:12;23.40;;;14.68;;
42598;SDS011;28225;42.714;23.860;2022-11-20T08:22:37;31.48;;;22.17;;
42598;SDS011;28225;42.714;23.860;2022-11-20T08:25:03;31.08;;;22.38;;
42598;SDS011;28225;42.714;23.860;2022-11-20T08:27:31;27.92;;;18.48;;
42598;SDS011;28225;42.714;23.860;2022-11-20T08:29:57;19.55;;;13.25;;
42598;SDS011;28225;42.714;23.860;2022-11-20T08:32:22;13.88;;;11.20;;
42598;SDS011;28225;42.714;23.860;2022-11-20T08:34:47;14.02;;;8.85;;
42598;SDS011;28225;42.714;23.860;2022-11-20T08:37:13;17.52;;;11.75;;
42598;SDS011;28225;42.714;23.860;2022-11-20T08:39:39;15.40;;;8.75;;
42598;SDS011;28225;42.714;23.860;2022-11-20T08:42:07;11.82;;;6.93;;
42598;SDS011;28225;42.714;23.860;2022-11-20T08:44:33;7.03;;;5.88;;
42598;SDS011;28225;42.714;23.860;2022-11-20T08:46:59;9.80;;;5.57;;
42598;SDS011;28225;42.714;23.860;2022-11-20T08:49:25;15.23;;;7.00;;
42598;SDS011;28225;42.714;23.860;2022-11-20T08:51:51;17.63;;;11.20;;
42598;SDS011;28225;42.714;23.860;2022-11-20T08:54:18;21.73;;;11.40;;
42598;SDS011;28225;42.714;23.860;2022-11-20T08:56:46;16.58;;;11.77;;
42598;SDS011;28225;42.714;23.860;2022-11-20T08:59:12;7.35;;;6.13;;
42598;SDS011;28225;42.714;23.860;2022-11-20T09:01:38;6.88;;;4.60;;
42598;SDS011;28225;42.714;23.860;2022-11-20T09:04:04;7.88;;;4.90;;
42598;SDS011;28225;42.714;23.860;2022-11-20T09:06:29;12.07;;;8.20;;
42598;SDS011;28225;42.714;23.860;2022-11-20T09:08:55;25.48;;;11.38;;
42598;SDS011;28225;42.714;23.860;2022-11-20T09:11:22;18.55;;;12.23;;
42598;SDS011;28225;42.714;23.860;2022-11-20T09:13:47;20.65;;;15.27;;
42598;SDS011;28225;42.714;23.860;2022-11-20T09:16:13;20.85;;;12.98;;
42598;SDS011;28225;42.714;23.860;2022-11-20T09:18:39;30.52;;;15.82;;
42598;SDS011;28225;42.714;23.860;2022-11-20T09:21:05;22.77;;;11.85;;
42598;SDS011;28225;42.714;23.860;2022-11-20T09:23:33;23.10;;;10.75;;
42598;SDS011;28225;42.714;23.860;2022-11-20T09:26:08;15.55;;;8.68;;
42598;SDS011;28225;42.714;23.860;2022-11-20T09:28:35;28.15;;;12.70;;
42598;SDS011;28225;42.714;23.860;2022-11-20T09:31:04;28.67;;;15.05;;
42598;SDS011;28225;42.714;23.860;2022-11-20T09:33:31;26.77;;;12.00;;
42598;SDS011;28225;42.714;23.860;2022-11-20T09:35:56;23.92;;;12.57;;
42598;SDS011;28225;42.714;23.860;2022-11-20T09:38:22;23.02;;;13.85;;
42598;SDS011;28225;42.714;23.860;2022-11-20T09:40:51;20.25;;;7.55;;
42598;SDS011;28225;42.714;23.860;2022-11-20T09:46:21;24.85;;;10.52;;
42598;SDS011;28225;42.714;23.860;2022-11-20T09:54:22;28.48;;;12.27;;
42598;SDS011;28225;42.714;23.860;2022-11-20T09:57:17;12.55;;;7.78;;
42598;SDS011;28225;42.714;23.860;2022-11-20T09:59:54;8.30;;;5.68;;
42598;SDS011;28225;42.714;23.860;2022-11-20T10:04:49;11.05;;;8.48;;
42598;SDS011;28225;42.714;23.860;2022-11-20T10:07:42;12.40;;;8.63;;
42598;SDS011;28225;42.714;23.860;2022-11-20T10:10:30;15.27;;;7.82;;
42598;SDS011;28225;42.714;23.860;2022-11-20T10:13:02;7.68;;;5.18;;
42598;SDS011;28225;42.714;23.860;2022-11-20T10:18:44;12.02;;;8.02;;
42598;SDS011;28225;42.714;23.860;2022-11-20T10:26:55;6.53;;;3.33;;
42598;SDS011;28225;42.714;23.860;2022-11-20T10:29:32;2.88;;;2.35;;
42598;SDS011;28225;42.714;23.860;2022-11-20T10:32:18;10.65;;;5.50;;
42598;SDS011;28225;42.714;23.860;2022-11-20T10:37:42;7.18;;;5.63;;
42598;SDS011;28225;42.714;23.860;2022-11-20T10:42:56;4.28;;;3.30;;
42598;SDS011;28225;42.714;23.860;2022-11-20T10:47:55;6.00;;;4.47;;
42598;SDS011;28225;42.714;23.860;2022-11-20T10:50:25;11.00;;;6.60;;
42598;SDS011;28225;42.714;23.860;2022-11-20T10:56:00;10.98;;;5.53;;
42598;SDS011;28225;42.714;23.860;2022-11-20T11:01:16;7.03;;;3.47;;
42598;SDS011;28225;42.714;23.860;2022-11-20T11:03:43;5.90;;;4.07;;
42598;SDS011;28225;42.714;23.860;2022-11-20T11:08:43;13.90;;;9.15;;
42598;SDS011;28225;42.714;23.860;2022-11-20T11:11:23;19.52;;;12.10;;
42598;SDS011;28225;42.714;23.860;2022-11-20T11:13:50;17.45;;;12.02;;
42598;SDS011;28225;42.714;23.860;2022-11-20T11:19:02;19.98;;;12.02;;
42598;SDS011;28225;42.714;23.860;2022-11-20T11:21:28;23.08;;;15.25;;
42598;SDS011;28225;42.714;23.860;2022-11-20T11:23:58;13.40;;;10.57;;
42598;SDS011;28225;42.714;23.860;2022-11-20T11:26:25;11.10;;;8.13;;
42598;SDS011;28225;42.714;23.860;2022-11-20T11:31:23;6.90;;;5.50;;
42598;SDS011;28225;42.714;23.860;2022-11-20T11:34:03;7.72;;;5.57;;
42598;SDS011;28225;42.714;23.860;2022-11-20T11:39:16;8.52;;;4.82;;
42598;SDS011;28225;42.714;23.860;2022-11-20T11:41:43;7.55;;;3.78;;
42598;SDS011;28225;42.714;23.860;2022-11-20T11:44:22;5.07;;;3.85;;
42598;SDS011;28225;42.714;23.860;2022-11-20T11:47:21;10.80;;;5.72;;
42598;SDS011;28225;42.714;23.860;2022-11-20T11:49:48;9.93;;;4.88;;
42598;SDS011;28225;42.714;23.860;2022-11-20T11:52:17;6.95;;;3.33;;
42598;SDS011;28225;42.714;23.860;2022-11-20T11:57:26;11.88;;;6.47;;
42598;SDS011;28225;42.714;23.860;2022-11-20T12:02:34;20.58;;;13.48;;
42598;SDS011;28225;42.714;23.860;2022-11-20T12:05:03;28.38;;;18.23;;
42598;SDS011;28225;42.714;23.860;2022-11-20T12:07:43;25.85;;;17.83;;
42598;SDS011;28225;42.714;23.860;2022-11-20T12:10:19;17.42;;;12.20;;
42598;SDS011;28225;42.714;23.860;2022-11-20T12:12:52;4.88;;;3.72;;
42598;SDS011;28225;42.714;23.860;2022-11-20T12:15:25;8.13;;;4.40;;
42598;SDS011;28225;42.714;23.860;2022-11-20T12:17:54;10.77;;;3.17;;
42598;SDS011;28225;42.714;23.860;2022-11-20T12:20:21;10.52;;;5.78;;
42598;SDS011;28225;42.714;23.860;2022-11-20T12:23:09;5.90;;;3.53;;
42598;SDS011;28225;42.714;23.860;2022-11-20T12:25:54;8.10;;;4.60;;
42598;SDS011;28225;42.714;23.860;2022-11-20T12:28:32;8.90;;;3.83;;
42598;SDS011;28225;42.714;23.860;2022-11-20T12:41:43;5.00;;;2.73;;
42598;SDS011;28225;42.714;23.860;2022-11-20T12:50:41;7.07;;;4.05;;
42598;SDS011;28225;42.714;23.860;2022-11-20T12:52:53;7.97;;;3.60;;
42598;SDS011;28225;42.714;23.860;2022-11-20T12:57:55;6.40;;;3.97;;
42598;SDS011;28225;42.714;23.860;2022-11-20T13:00:24;5.32;;;2.40;;
42598;SDS011;28225;42.714;23.860;2022-11-20T13:03:09;15.13;;;2.65;;
42598;SDS011;28225;42.714;23.860;2022-11-20T13:08:33;3.38;;;2.40;;
42598;SDS011;28225;42.714;23.860;2022-11-20T13:19:09;14.23;;;9.07;;
42598;SDS011;28225;42.714;23.860;2022-11-20T13:21:39;12.02;;;6.60;;
42598;SDS011;28225;42.714;23.860;2022-11-20T13:26:44;16.38;;;10.23;;
42598;SDS011;28225;42.714;23.860;2022-11-20T13:29:19;8.60;;;4.88;;
42598;SDS011;28225;42.714;23.860;2022-11-20T13:31:46;6.97;;;4.00;;
42598;SDS011;28225;42.714;23.860;2022-11-20T13:34:13;5.38;;;3.95;;
42598;SDS011;28225;42.714;23.860;2022-11-20T13:36:50;7.88;;;3.65;;
42598;SDS011;28225;42.714;23.860;2022-11-20T13:44:45;1.95;;;1.25;;
42598;SDS011;28225;42.714;23.860;2022-11-20T13:47:30;4.47;;;1.75;;
42598;SDS011;28225;42.714;23.860;2022-11-20T13:49:57;3.58;;;1.75;;
42598;SDS011;28225;42.714;23.860;2022-11-20T13:52:42;37.95;;;16.63;;
42598;SDS011;28225;42.714;23.860;2022-11-20T13:55:18;10.00;;;6.93;;
42598;SDS011;28225;42.714;23.860;2022-11-20T13:58:05;20.20;;;9.98;;
42598;SDS011;28225;42.714;23.860;2022-11-20T14:01:08;35.28;;;20.08;;
42598;SDS011;28225;42.714;23.860;2022-11-20T14:03:44;73.60;;;31.80;;
42598;SDS011;28225;42.714;23.860;2022-11-20T14:06:11;38.53;;;19.77;;
42598;SDS011;28225;42.714;23.860;2022-11-20T14:08:41;15.73;;;8.75;;
42598;SDS011;28225;42.714;23.860;2022-11-20T14:11:17;8.98;;;5.80;;
42598;SDS011;28225;42.714;23.860;2022-11-20T14:14:00;4.72;;;3.10;;
42598;SDS011;28225;42.714;23.860;2022-11-20T14:16:35;2.75;;;1.83;;
42598;SDS011;28225;42.714;23.860;2022-11-20T14:25:03;6.97;;;4.78;;
42598;SDS011;28225;42.714;23.860;2022-11-20T14:30:00;25.05;;;15.40;;
42598;SDS011;28225;42.714;23.860;2022-11-20T14:32:26;20.02;;;14.75;;
42598;SDS011;28225;42.714;23.860;2022-11-20T14:34:53;16.25;;;12.55;;
42598;SDS011;28225;42.714;23.860;2022-11-20T14:37:20;23.45;;;18.88;;
42598;SDS011;28225;42.714;23.860;2022-11-20T14:39:51;45.83;;;32.80;;
42598;SDS011;28225;42.714;23.860;2022-11-20T14:42:20;60.60;;;35.70;;
42598;SDS011;28225;42.714;23.860;2022-11-20T14:44:56;40.00;;;26.52;;
42598;SDS011;28225;42.714;23.860;2022-11-20T14:47:24;43.63;;;27.92;;
42598;SDS011;28225;42.714;23.860;2022-11-20T14:49:51;42.45;;;26.73;;
42598;SDS011;28225;42.714;23.860;2022-11-20T14:52:18;48.83;;;29.98;;
42598;SDS011;28225;42.714;23.860;2022-11-20T14:54:49;43.75;;;27.23;;
42598;SDS011;28225;42.714;23.860;2022-11-20T14:57:20;36.90;;;22.33;;
42598;SDS011;28225;42.714;23.860;2022-11-20T14:59:46;45.92;;;27.45;;
42598;SDS011;28225;42.714;23.860;2022-11-20T15:02:11;17.00;;;10.05;;
42598;SDS011;28225;42.714;23.860;2022-11-20T15:04:50;20.75;;;11.98;;
42598;SDS011;28225;42.714;23.860;2022-11-20T15:10:00;11.93;;;6.68;;
42598;SDS011;28225;42.714;23.860;2022-11-20T15:12:26;22.35;;;11.77;;
42598;SDS011;28225;42.714;23.860;2022-11-20T15:14:52;17.92;;;10.43;;
42598;SDS011;28225;42.714;23.860;2022-11-20T15:17:17;13.32;;;7.85;;
42598;SDS011;28225;42.714;23.860;2022-11-20T15:19:43;10.90;;;6.43;;
42598;SDS011;28225;42.714;23.860;2022-11-20T15:22:12;10.15;;;4.43;;
42598;SDS011;28225;42.714;23.860;2022-11-20T15:24:44;8.75;;;4.50;;
42598;SDS011;28225;42.714;23.860;2022-11-20T15:27:10;6.60;;;3.97;;
42598;SDS011;28225;42.714;23.860;2022-11-20T15:29:35;10.48;;;4.97;;
42598;SDS011;28225;42.714;23.860;2022-11-20T15:32:01;7.03;;;4.88;;
42598;SDS011;28225;42.714;23.860;2022-11-20T15:34:27;4.97;;;3.67;;
42598;SDS011;28225;42.714;23.860;2022-11-20T15:36:52;6.07;;;4.18;;
42598;SDS011;28225;42.714;23.860;2022-11-20T15:39:19;6.32;;;4.60;;
42598;SDS011;28225;42.714;23.860;2022-11-20T15:41:45;4.88;;;3.20;;
42598;SDS011;28225;42.714;23.860;2022-11-20T15:44:10;11.88;;;5.30;;
42598;SDS011;28225;42.714;23.860;2022-11-20T15:46:36;9.77;;;5.15;;
42598;SDS011;28225;42.714;23.860;2022-11-20T15:49:05;6.18;;;4.47;;
42598;SDS011;28225;42.714;23.860;2022-11-20T15:51:35;7.55;;;4.82;;
42598;SDS011;28225;42.714;23.860;2022-11-20T15:54:12;7.10;;;4.00;;
42598;SDS011;28225;42.714;23.860;2022-11-20T15:56:37;5.25;;;4.05;;
42598;SDS011;28225;42.714;23.860;2022-11-20T15:59:03;5.93;;;4.55;;
42598;SDS011;28225;42.714;23.860;2022-11-20T16:01:29;6.38;;;4.45;;
42598;SDS011;28225;42.714;23.860;2022-11-20T16:03:54;13.15;;;5.32;;
42598;SDS011;28225;42.714;23.860;2022-11-20T16:06:20;9.45;;;6.30;;
42598;SDS011;28225;42.714;23.860;2022-11-20T16:08:45;9.40;;;4.55;;
42598;SDS011;28225;42.714;23.860;2022-11-20T16:11:15;5.40;;;3.85;;
42598;SDS011;28225;42.714;23.860;2022-11-20T16:13:42;18.77;;;7.65;;
42598;SDS011;28225;42.714;23.860;2022-11-20T16:16:27;14.40;;;8.65;;
42598;SDS011;28225;42.714;23.860;2022-11-20T16:21:20;9.13;;;4.93;;
42598;SDS011;28225;42.714;23.860;2022-11-20T16:23:46;12.52;;;6.03;;
42598;SDS011;28225;42.714;23.860;2022-11-20T16:26:12;5.90;;;4.22;;
42598;SDS011;28225;42.714;23.860;2022-11-20T16:28:39;6.63;;;3.25;;
42598;SDS011;28225;42.714;23.860;2022-11-20T16:31:12;7.65;;;5.05;;
42598;SDS011;28225;42.714;23.860;2022-11-20T16:33:39;11.30;;;6.07;;
42598;SDS011;28225;42.714;23.860;2022-11-20T16:36:09;2.30;;;2.10;;
42598;SDS011;28225;42.714;23.860;2022-11-20T16:38:35;2.95;;;1.77;;
42598;SDS011;28225;42.714;23.860;2022-11-20T16:41:01;2.55;;;1.70;;
42598;SDS011;28225;42.714;23.860;2022-11-20T16:43:27;5.05;;;2.25;;
42598;SDS011;28225;42.714;23.860;2022-11-20T16:45:52;2.67;;;1.90;;
42598;SDS011;28225;42.714;23.860;2022-11-20T16:48:18;2.75;;;2.30;;
42598;SDS011;28225;42.714;23.860;2022-11-20T16:50:47;4.03;;;2.30;;
42598;SDS011;28225;42.714;23.860;2022-11-20T16:53:17;3.83;;;2.15;;
42598;SDS011;28225;42.714;23.860;2022-11-20T16:55:43;3.47;;;2.75;;
42598;SDS011;28225;42.714;23.860;2022-11-20T16:58:09;2.47;;;2.20;;
42598;SDS011;28225;42.714;23.860;2022-11-20T17:00:37;3.95;;;2.95;;
42598;SDS011;28225;42.714;23.860;2022-11-20T17:03:04;6.30;;;3.80;;
42598;SDS011;28225;42.714;23.860;2022-11-20T17:05:30;4.47;;;3.15;;
42598;SDS011;28225;42.714;23.860;2022-11-20T17:07:56;2.35;;;2.15;;
42598;SDS011;28225;42.714;23.860;2022-11-20T17:10:22;8.02;;;3.25;;
42598;SDS011;28225;42.714;23.860;2022-11-20T17:12:47;2.63;;;1.77;;
42598;SDS011;28225;42.714;23.860;2022-11-20T17:15:13;3.65;;;2.85;;
42598;SDS011;28225;42.714;23.860;2022-11-20T17:17:38;4.97;;;3.85;;
42598;SDS011;28225;42.714;23.860;2022-11-20T17:20:04;4.35;;;3.00;;
42598;SDS011;28225;42.714;23.860;2022-11-20T17:22:30;9.95;;;6.10;;